| time (UTC) | temp C | wind direction | speed KPH | gust KPH | rain 1hr cm | rain 24hr cm | rain mn cm | humidity % | barometer mb |
| 20260906050439 | 16 | 310 | 17.7 | 0.0 | 0.00 | 0.00 | 0.00 | 83 | 1019.0 |
| 20260906044939 | 16 | 250 | 4.8 | 0.0 | 0.00 | 0.00 | 0.00 | 83 | 1018.0 |
| 20260906043428 | 15 | 240 | 8.0 | 0.0 | 0.00 | 0.00 | 0.00 | 88 | 1018.0 |
| 20260906041940 | 15 | 240 | 8.0 | 0.0 | 0.00 | 0.00 | 0.00 | 88 | 1018.0 |
| 20260906040343 | 15 | 240 | 8.0 | 0.0 | 0.00 | 0.00 | 0.00 | 88 | 1018.0 |
| 20260906034840 | 15 | 230 | 9.7 | 0.0 | 0.00 | 0.00 | 0.00 | 88 | 1017.0 |
| 20260906033440 | 15 | 230 | 9.7 | 0.0 | 0.00 | 0.00 | 0.00 | 88 | 1017.0 |
| 20260906031939 | 15 | 230 | 8.0 | 0.0 | 0.00 | 0.00 | 0.00 | 88 | 1017.0 |
| 20260906030439 | 15 | 230 | 8.0 | 0.0 | 0.00 | 0.00 | 0.00 | 88 | 1017.0 |
| 20260906024850 | 15 | 230 | 4.8 | 0.0 | 0.00 | 0.00 | 0.00 | 88 | 1017.0 |
| 20260906023323 | 15 | 230 | 4.8 | 0.0 | 0.00 | 0.00 | 0.00 | 88 | 1017.0 |
| 20260906021830 | 16 | 220 | 3.2 | 0.0 | 0.00 | 0.00 | 0.00 | 83 | 1017.0 |
| 20260906020324 | 16 | 220 | 3.2 | 0.0 | 0.00 | 0.00 | 0.00 | 83 | 1017.0 |
| 20260906014824 | 16 | 240 | 4.8 | 0.0 | 0.00 | 0.00 | 0.00 | 88 | 1017.0 |
| 20260906013441 | 16 | 240 | 4.8 | 0.0 | 0.00 | 0.00 | 0.00 | 88 | 1017.0 |
| 20260906011823 | 16 | 190 | 8.0 | 0.0 | 0.00 | 0.00 | 0.00 | 88 | 1017.0 |
| 20260906010323 | 16 | 190 | 8.0 | 0.0 | 0.00 | 0.00 | 0.00 | 88 | 1017.0 |
| 20260906004940 | 16 | 230 | 8.0 | 0.0 | 0.00 | 0.00 | 0.00 | 88 | 1017.0 |
| 20260906003450 | 16 | 230 | 8.0 | 0.0 | 0.00 | 0.00 | 0.00 | 88 | 1017.0 |
| 20260906001940 | 16 | 220 | 8.0 | 0.0 | 0.00 | 0.00 | 0.00 | 88 | 1017.0 |
| 20260906000430 | 16 | 250 | 8.0 | 0.0 | 0.00 | 0.00 | 0.00 | 88 | 1017.0 |
| 20260905234833 | 16 | 250 | 8.0 | 0.0 | 0.00 | 0.00 | 0.00 | 88 | 1017.0 |
| 20260905233323 | 16 | 250 | 8.0 | 0.0 | 0.00 | 0.00 | 0.00 | 88 | 1017.0 |
| 20260905231940 | 17 | 240 | 8.0 | 0.0 | 0.00 | 0.00 | 0.00 | 83 | 1018.0 |
| 20260905230355 | 17 | 240 | 8.0 | 0.0 | 0.00 | 0.00 | 0.00 | 83 | 1018.0 |
| 20260905224941 | 17 | 240 | 9.7 | 0.0 | 0.00 | 0.00 | 0.00 | 83 | 1018.0 |
| 20260905223337 | 17 | 240 | 9.7 | 0.0 | 0.00 | 0.00 | 0.00 | 83 | 1018.0 |
| 20260905221925 | 16 | 240 | 9.7 | 0.0 | 0.00 | 0.00 | 0.00 | 88 | 1018.0 |
| 20260905220440 | 16 | 240 | 9.7 | 0.0 | 0.00 | 0.00 | 0.00 | 88 | |
| 20260905214939 | 16 | 260 | 9.7 | 0.0 | 0.00 | 0.00 | 0.00 | 88 | 1017.0 |
| 20260905213323 | 16 | 260 | 9.7 | 0.0 | 0.00 | 0.00 | 0.00 | 88 | 1017.0 |
| 20260905211823 | 16 | 260 | 11.3 | 0.0 | 0.00 | 0.00 | 0.00 | 88 | 1017.0 |
| 20260905210323 | 16 | 260 | 11.3 | 0.0 | 0.00 | 0.00 | 0.00 | 88 | 1017.0 |
| 20260905204834 | 16 | 270 | 9.7 | 0.0 | 0.00 | 0.00 | 0.00 | 88 | 1017.0 |
| 20260905203323 | 16 | 270 | 9.7 | 0.0 | 0.00 | 0.00 | 0.00 | 88 | 1017.0 |
| 20260905201823 | 16 | 280 | 9.7 | 0.0 | 0.00 | 0.00 | 0.00 | 94 | 1016.0 |
| 20260905200440 | 16 | 280 | 9.7 | 0.0 | 0.00 | 0.00 | 0.00 | 94 | 1016.0 |
| 20260905194931 | 17 | 250 | 8.0 | 0.0 | 0.00 | 0.00 | 0.00 | 88 | 1017.0 |
| 20260905193323 | 17 | 250 | 8.0 | 0.0 | 0.00 | 0.00 | 0.00 | 88 | 1017.0 |
| 20260905191852 | 17 | 240 | 8.0 | 0.0 | 0.00 | 0.00 | 0.00 | 88 | 1017.0 |
| 20260905190324 | 17 | 240 | 8.0 | 0.0 | 0.00 | 0.00 | 0.00 | 88 | 1017.0 |
| 20260905184824 | 17 | 270 | 9.7 | 0.0 | 0.00 | 0.00 | 0.00 | 88 | 1017.0 |
| 20260905183328 | 17 | 270 | 9.7 | 0.0 | 0.00 | 0.00 | 0.00 | 88 | 1017.0 |
| 20260905181823 | 17 | 320 | 11.3 | 0.0 | 0.00 | 0.00 | 0.00 | 88 | 1016.0 |
| 20260905180323 | 17 | 320 | 11.3 | 0.0 | 0.00 | 0.00 | 0.00 | 88 | 1016.0 |
| 20260905173323 | 17 | 320 | 9.7 | 0.0 | 0.00 | 0.00 | 0.00 | 88 | 1016.0 |
| 20260905170323 | 22 | 320 | 14.5 | 0.0 | 0.00 | 0.00 | 0.00 | 50 | 1016.0 |
| 20260905164823 | 22 | 360 | 8.0 | 0.0 | 0.00 | 0.00 | 0.00 | 47 | 1015.0 |
| 20260905163324 | 22 | 360 | 8.0 | 0.0 | 0.00 | 0.00 | 0.00 | 47 | 1015.0 |
| 20260905161824 | 22 | 320 | 32.2 | 0.0 | 0.00 | 0.00 | 0.00 | 47 | 1015.0 |
| 20260905160324 | 22 | 320 | 32.2 | 0.0 | 0.00 | 0.00 | 0.00 | 47 | 1015.0 |
| 20260905154840 | 22 | 320 | 27.4 | 46.7 | 0.00 | 0.00 | 0.00 | 47 | 1014.0 |
| 20260905153323 | 22 | 320 | 27.4 | 46.7 | 0.00 | 0.00 | 0.00 | 47 | 1014.0 |
| 20260905151824 | 23 | 330 | 41.8 | 61.2 | 0.00 | 0.00 | 0.00 | 47 | 1013.0 |
| 20260905150324 | 23 | 330 | 41.8 | 61.2 | 0.00 | 0.00 | 0.00 | 47 | 1013.0 |
| 20260905144823 | 25 | 330 | 49.9 | 0.0 | 0.00 | 0.00 | 0.00 | 42 | 1012.0 |
| 20260905143323 | 25 | 330 | 49.9 | 0.0 | 0.00 | 0.00 | 0.00 | 42 | 1012.0 |
| 20260905134938 | 32 | 250 | 9.7 | 0.0 | 0.00 | 0.00 | 0.00 | 28 | 1011.0 |
| 20260905133323 | 32 | 250 | 9.7 | 0.0 | 0.00 | 0.00 | 0.00 | 28 | 1011.0 |
| 20260905131826 | 32 | 270 | 11.3 | 0.0 | 0.00 | 0.00 | 0.00 | 28 | 1011.0 |
| 20260905130345 | 32 | 270 | 11.3 | 0.0 | 0.00 | 0.00 | 0.00 | 28 | 1011.0 |
| 20260905124821 | 32 | 11.3 | 0.0 | 0.00 | 0.00 | 0.00 | 27 | 1012.0 | |
| 20260905123324 | 32 | 11.3 | 0.0 | 0.00 | 0.00 | 0.00 | 27 | 1012.0 | |
| 20260905121851 | 32 | 260 | 11.3 | 0.0 | 0.00 | 0.00 | 0.00 | 28 | 1012.0 |
| 20260905120324 | 32 | 260 | 11.3 | 0.0 | 0.00 | 0.00 | 0.00 | 28 | 1012.0 |
| 20260905114823 | 32 | 210 | 12.9 | 0.0 | 0.00 | 0.00 | 0.00 | 29 | 1012.0 |
| 20260905113323 | 32 | 210 | 12.9 | 0.0 | 0.00 | 0.00 | 0.00 | 29 | 1012.0 |
| 20260905111842 | 31 | 190 | 11.3 | 0.0 | 0.00 | 0.00 | 0.00 | 31 | 1012.0 |
| 20260905110323 | 31 | 190 | 11.3 | 0.0 | 0.00 | 0.00 | 0.00 | 31 | 1012.0 |
| 20260905104824 | 31 | 190 | 9.7 | 0.0 | 0.00 | 0.00 | 0.00 | 31 | 1013.0 |
| 20260905103323 | 31 | 190 | 9.7 | 0.0 | 0.00 | 0.00 | 0.00 | 31 | 1013.0 |
| 20260905101823 | 31 | 200 | 12.9 | 0.0 | 0.00 | 0.00 | 0.00 | 31 | 1013.0 |
| 20260905100324 | 31 | 200 | 12.9 | 0.0 | 0.00 | 0.00 | 0.00 | 31 | 1013.0 |
| 20260905094940 | 31 | 220 | 12.9 | 0.0 | 0.00 | 0.00 | 0.00 | 33 | 1013.0 |
| 20260905093323 | 31 | 220 | 12.9 | 0.0 | 0.00 | 0.00 | 0.00 | 33 | 1013.0 |
| 20260905091823 | 30 | 210 | 12.9 | 0.0 | 0.00 | 0.00 | 0.00 | 33 | 1013.0 |
| 20260905090323 | 30 | 210 | 12.9 | 0.0 | 0.00 | 0.00 | 0.00 | 33 | 1013.0 |
| 20260905084823 | 28 | 240 | 12.9 | 0.0 | 0.00 | 0.00 | 0.00 | 35 | 1013.0 |
| 20260905083323 | 28 | 240 | 12.9 | 0.0 | 0.00 | 0.00 | 0.00 | 35 | 1013.0 |
| 20260905081823 | 27 | 240 | 11.3 | 0.0 | 0.00 | 0.00 | 0.00 | 37 | 1014.0 |
| 20260905080324 | 27 | 240 | 11.3 | 0.0 | 0.00 | 0.00 | 0.00 | 37 | 1014.0 |
| 20260905074823 | 27 | 190 | 9.7 | 0.0 | 0.00 | 0.00 | 0.00 | 42 | 1014.0 |
| 20260905073332 | 27 | 190 | 9.7 | 0.0 | 0.00 | 0.00 | 0.00 | 42 | 1014.0 |
| 20260905071824 | 26 | 190 | 9.7 | 0.0 | 0.00 | 0.00 | 0.00 | 45 | 1014.0 |
| 20260905070323 | 26 | 190 | 9.7 | 0.0 | 0.00 | 0.00 | 0.00 | 45 | 1014.0 |
| 20260905064824 | 23 | 210 | 11.3 | 0.0 | 0.00 | 0.00 | 0.00 | 47 | 1014.0 |
| 20260905063324 | 23 | 210 | 11.3 | 0.0 | 0.00 | 0.00 | 0.00 | 47 | 1014.0 |
| 20260905061824 | 22 | 210 | 9.7 | 0.0 | 0.00 | 0.00 | 0.00 | 53 | 1014.0 |
| 20260905060324 | 22 | 210 | 9.7 | 0.0 | 0.00 | 0.00 | 0.00 | 53 | 1014.0 |
| 20260905054824 | 21 | 200 | 9.7 | 0.0 | 0.00 | 0.00 | 0.00 | 57 | 1014.0 |
| 20260905053324 | 21 | 200 | 9.7 | 0.0 | 0.00 | 0.00 | 0.00 | 57 | 1014.0 |
| 20260905051823 | 18 | 3.2 | 0.0 | 0.00 | 0.00 | 0.00 | 64 | 1014.0 |